createdAt,value
2022-11-02T00:00:24.238Z,77.77
2022-11-02T00:01:24.477Z,77.87
2022-11-02T00:02:24.321Z,77.87
2022-11-02T00:03:24.200Z,77.50
2022-11-02T00:04:24.184Z,77.97
2022-11-02T00:05:24.174Z,77.87
2022-11-02T00:06:24.176Z,78.17
2022-11-02T00:07:24.155Z,78.38
2022-11-02T00:08:24.140Z,78.68
2022-11-02T00:09:24.135Z,79.09
2022-11-02T00:10:24.150Z,79.39
2022-11-02T00:11:24.127Z,79.29
2022-11-02T00:12:24.112Z,79.53
2022-11-02T00:13:24.097Z,79.53
2022-11-02T00:14:24.072Z,79.43
2022-11-02T00:15:24.075Z,79.23
2022-11-02T00:16:31.158Z,79.23
2022-11-02T00:17:24.058Z,79.33
2022-11-02T00:18:24.039Z,79.23
2022-11-02T00:19:24.032Z,78.62
2022-11-02T00:20:24.010Z,78.62
2022-11-02T00:21:24.003Z,78.82
2022-11-02T00:22:23.992Z,78.72
2022-11-02T00:23:23.995Z,78.68
2022-11-02T00:24:23.965Z,78.52
2022-11-02T00:25:23.959Z,78.38
2022-11-02T00:26:23.959Z,78.58
2022-11-02T00:27:23.945Z,78.08
2022-11-02T00:28:23.923Z,78.08
2022-11-02T00:29:23.913Z,78.08
2022-11-02T00:30:23.900Z,78.08
2022-11-02T00:31:23.915Z,78.08
2022-11-02T00:32:23.883Z,78.17
2022-11-02T00:33:23.885Z,77.87
2022-11-02T00:34:23.858Z,77.67
2022-11-02T00:35:23.856Z,77.77
2022-11-02T00:36:23.834Z,77.47
2022-11-02T00:37:23.894Z,77.77
2022-11-02T00:38:23.809Z,77.97
2022-11-02T00:39:23.812Z,77.77
2022-11-02T00:40:23.802Z,77.06
2022-11-02T00:41:23.803Z,77.56
2022-11-02T00:42:23.785Z,77.56
2022-11-02T00:43:23.765Z,77.56
2022-11-02T00:44:23.745Z,77.56
2022-11-02T00:45:23.735Z,77.77
2022-11-02T00:46:23.741Z,77.36
2022-11-02T00:47:23.742Z,77.26
2022-11-02T00:48:23.704Z,77.16
2022-11-02T00:49:23.696Z,77.47
2022-11-02T00:50:23.686Z,76.86
2022-11-02T00:51:23.671Z,76.75
2022-11-02T00:52:23.661Z,77.56
2022-11-02T00:53:23.665Z,77.26
2022-11-02T00:54:25.970Z,77.06
2022-11-02T00:55:23.649Z,77.16
2022-11-02T00:56:23.637Z,77.16
2022-11-02T00:57:23.610Z,77.36
2022-11-02T00:58:23.637Z,77.16
2022-11-02T00:59:23.588Z,76.86
2022-11-02T01:00:23.574Z,76.75
2022-11-02T01:01:23.729Z,77.36
2022-11-02T01:02:23.687Z,77.56
2022-11-02T01:03:23.538Z,77.06
2022-11-02T01:04:23.552Z,77.16
2022-11-02T01:05:23.522Z,76.95
2022-11-02T01:06:23.505Z,77.40
2022-11-02T01:07:23.492Z,77.67
2022-11-02T01:08:23.480Z,77.67
2022-11-02T01:09:23.474Z,77.77
2022-11-02T01:10:23.474Z,77.67
2022-11-02T01:13:49.312Z,77.67
2022-11-02T01:14:49.281Z,77.87
2022-11-02T01:15:49.287Z,77.87
2022-11-02T01:16:49.277Z,77.87
2022-11-02T01:17:49.270Z,78.08
2022-11-02T01:18:49.245Z,78.11
2022-11-02T01:19:49.229Z,77.36
2022-11-02T01:20:49.215Z,77.87
2022-11-02T01:21:49.211Z,77.91
2022-11-02T01:22:49.198Z,77.97
2022-11-02T01:23:49.179Z,77.87
2022-11-02T01:24:49.171Z,77.67
2022-11-02T01:25:49.164Z,77.87
2022-11-02T01:26:49.168Z,77.77
2022-11-02T01:27:49.135Z,77.87
2022-11-02T01:28:56.226Z,77.67
2022-11-02T01:29:49.106Z,77.87
2022-11-02T01:30:49.098Z,77.67
2022-11-02T01:31:49.097Z,77.77
2022-11-02T01:32:49.092Z,77.56
2022-11-02T01:33:49.078Z,77.56
2022-11-02T01:34:49.057Z,77.67
2022-11-02T01:35:49.053Z,77.56
2022-11-02T01:36:49.031Z,77.77
2022-11-02T01:37:49.024Z,77.47
2022-11-02T01:38:49.015Z,77.77
2022-11-02T01:39:48.994Z,77.77
2022-11-02T01:40:48.985Z,77.77
2022-11-02T01:41:48.982Z,77.97
2022-11-02T01:42:48.966Z,77.87
2022-11-02T01:43:48.952Z,77.77
2022-11-02T01:44:48.966Z,77.77
2022-11-02T01:45:48.925Z,77.97
2022-11-02T01:46:48.917Z,77.36
2022-11-02T01:47:48.910Z,77.36
2022-11-02T01:48:49.722Z,78.17
2022-11-02T01:49:48.896Z,77.77
2022-11-02T01:50:48.885Z,78.08
2022-11-02T01:51:48.860Z,78.08
2022-11-02T01:52:48.860Z,77.87
2022-11-02T01:53:48.831Z,78.08
2022-11-02T01:54:48.832Z,78.08
2022-11-02T01:55:48.822Z,78.08
2022-11-02T01:56:48.803Z,78.38
2022-11-02T01:57:48.795Z,78.38
2022-11-02T01:58:48.780Z,78.58
2022-11-02T01:59:48.773Z,78.38
2022-11-02T02:02:08.653Z,78.58
2022-11-02T02:03:01.663Z,78.78
2022-11-02T02:04:01.660Z,78.82
2022-11-02T02:05:01.648Z,78.82
2022-11-02T02:06:01.629Z,78.72
2022-11-02T02:07:01.615Z,78.92
2022-11-02T02:08:01.847Z,79.23
2022-11-02T02:09:01.584Z,79.23
2022-11-02T02:10:01.592Z,79.43
2022-11-02T02:11:01.566Z,79.27
2022-11-02T02:12:01.573Z,79.33
2022-11-02T02:13:01.547Z,79.68
2022-11-02T02:14:01.538Z,79.68
2022-11-02T02:15:01.527Z,79.57
2022-11-02T02:16:08.619Z,79.57
2022-11-02T02:17:01.515Z,79.43
2022-11-02T02:18:01.801Z,79.47
2022-11-02T02:19:01.507Z,79.47
2022-11-02T02:20:01.490Z,79.16
2022-11-02T02:21:01.481Z,79.27
2022-11-02T02:22:01.453Z,79.27
2022-11-02T02:23:01.439Z,79.16
2022-11-02T02:24:01.421Z,79.68
2022-11-02T02:25:01.418Z,79.98
2022-11-02T02:26:01.400Z,80.08
2022-11-02T02:27:01.401Z,79.77
2022-11-02T02:28:01.686Z,80.29
2022-11-02T02:29:01.374Z,80.38
2022-11-02T02:30:01.380Z,80.59
2022-11-02T02:31:01.335Z,80.59
2022-11-02T02:32:01.341Z,80.69
2022-11-02T02:33:01.318Z,80.42
2022-11-02T02:34:01.334Z,80.32
2022-11-02T02:35:01.294Z,80.32
2022-11-02T02:36:01.288Z,80.08
2022-11-02T02:37:01.284Z,80.99
2022-11-02T02:38:01.447Z,80.93
2022-11-02T02:39:01.251Z,80.63
2022-11-02T02:40:01.244Z,80.73
2022-11-02T02:41:01.231Z,81.13
2022-11-02T02:42:01.232Z,80.83
2022-11-02T02:43:01.216Z,80.93
2022-11-02T02:44:01.197Z,80.93
2022-11-02T02:45:01.183Z,81.13
2022-11-02T02:46:01.183Z,80.83
2022-11-02T02:47:01.162Z,81.13
2022-11-02T02:48:01.371Z,81.13
2022-11-02T02:49:01.153Z,81.24
2022-11-02T02:50:01.146Z,81.34
2022-11-02T02:51:01.116Z,81.34
2022-11-02T02:52:01.105Z,81.13
2022-11-02T02:53:01.101Z,80.93
2022-11-02T02:54:01.092Z,81.24
2022-11-02T02:55:01.075Z,81.48
2022-11-02T02:56:01.062Z,80.83
2022-11-02T02:57:01.056Z,80.83
2022-11-02T02:58:01.249Z,80.93
2022-11-02T02:59:01.030Z,81.34
2022-11-02T03:00:01.030Z,81.48
2022-11-02T03:01:01.001Z,81.24
2022-11-02T03:02:01.196Z,80.97
2022-11-02T03:03:01.298Z,80.87
2022-11-02T03:04:00.979Z,80.77
2022-11-02T03:05:00.959Z,80.83
2022-11-02T03:06:00.970Z,80.11
2022-11-02T03:07:00.944Z,80.73
2022-11-02T03:08:01.188Z,80.52
2022-11-02T03:09:00.938Z,80.73
2022-11-02T03:10:00.904Z,80.22
2022-11-02T03:11:00.891Z,79.98
2022-11-02T03:12:00.877Z,79.57
2022-11-02T03:13:00.872Z,79.10
2022-11-02T03:14:01.089Z,78.96
2022-11-02T03:15:00.844Z,78.45
2022-11-02T03:16:00.842Z,78.86
2022-11-02T03:17:00.830Z,78.86
2022-11-02T03:18:00.895Z,78.86
2022-11-02T03:19:00.800Z,78.25
2022-11-02T03:20:00.806Z,78.25
2022-11-02T03:21:00.777Z,77.53
2022-11-02T03:22:00.792Z,77.64
2022-11-02T03:23:00.752Z,76.92
2022-11-02T03:24:00.750Z,76.89
2022-11-02T03:25:00.732Z,77.33
2022-11-02T03:26:00.733Z,77.13
2022-11-02T03:27:00.711Z,76.92
2022-11-02T03:28:00.825Z,76.82
2022-11-02T03:29:00.686Z,77.44
2022-11-02T03:30:00.694Z,76.82
2022-11-02T03:31:00.674Z,77.33
2022-11-02T03:32:00.648Z,76.82
2022-11-02T03:33:00.640Z,76.42
2022-11-02T03:34:00.630Z,76.72
2022-11-02T03:35:00.609Z,76.42
2022-11-02T03:36:00.617Z,76.42
2022-11-02T03:37:00.622Z,76.52
2022-11-02T03:38:00.621Z,76.62
2022-11-02T03:39:00.576Z,76.31
2022-11-02T03:40:00.565Z,76.42
2022-11-02T03:41:00.552Z,75.91
2022-11-02T03:42:00.544Z,75.77
2022-11-02T03:43:00.547Z,75.16
2022-11-02T03:44:00.518Z,75.57
2022-11-02T03:45:00.520Z,75.26
2022-11-02T03:46:00.494Z,75.37
2022-11-02T03:47:00.490Z,75.67
2022-11-02T03:48:00.593Z,75.57
2022-11-02T03:49:03.438Z,76.01
2022-11-02T03:50:01.445Z,75.91
2022-11-02T03:51:00.438Z,75.60
2022-11-02T03:52:00.432Z,75.57
2022-11-02T03:53:00.442Z,75.67
2022-11-02T03:54:00.433Z,75.46
2022-11-02T03:55:00.391Z,75.46
2022-11-02T03:56:00.395Z,75.87
2022-11-02T03:57:00.415Z,75.87
2022-11-02T03:58:00.625Z,75.98
2022-11-02T03:59:00.381Z,75.87
2022-11-02T04:00:00.342Z,75.67
2022-11-02T04:01:00.335Z,76.18
2022-11-02T04:02:00.419Z,76.48
2022-11-02T04:03:00.318Z,76.42
2022-11-02T04:04:00.295Z,76.38
2022-11-02T04:05:00.287Z,76.72
2022-11-02T04:06:00.287Z,76.62
2022-11-02T04:07:00.262Z,76.92
2022-11-02T04:08:00.247Z,77.33
2022-11-02T04:09:00.242Z,77.03
2022-11-02T04:10:00.239Z,77.33
2022-11-02T04:11:00.217Z,77.53
2022-11-02T04:12:00.216Z,77.53
2022-11-02T04:13:00.203Z,77.17
2022-11-02T04:14:00.173Z,77.64
2022-11-02T04:15:00.174Z,77.84
2022-11-02T04:16:00.170Z,78.05
2022-11-02T04:17:00.155Z,78.08
2022-11-02T04:18:00.129Z,78.05
2022-11-02T04:19:00.130Z,78.28
2022-11-02T04:20:00.110Z,78.19
2022-11-02T04:21:00.094Z,78.25
2022-11-02T04:22:00.096Z,78.80
2022-11-02T04:23:00.117Z,78.69
2022-11-02T04:24:00.063Z,79.00
2022-11-02T04:25:00.046Z,78.89
2022-11-02T04:26:00.055Z,78.59
2022-11-02T04:27:00.036Z,78.66
2022-11-02T04:28:00.036Z,78.89
2022-11-02T04:29:00.002Z,78.59
2022-11-02T04:30:00.002Z,78.49
2022-11-02T04:30:59.985Z,78.80
2022-11-02T04:31:59.968Z,78.89
2022-11-02T04:32:59.991Z,78.49
2022-11-02T04:33:59.947Z,78.59
2022-11-02T04:34:59.932Z,78.89
2022-11-02T04:35:59.932Z,79.10
2022-11-02T04:36:59.911Z,79.10
2022-11-02T04:37:59.911Z,79.14
2022-11-02T04:38:59.901Z,79.00
2022-11-02T04:39:59.880Z,79.03
2022-11-02T04:40:59.886Z,78.89
2022-11-02T04:41:59.874Z,78.89
2022-11-02T04:42:59.845Z,79.00
2022-11-02T04:43:59.843Z,79.00
2022-11-02T04:44:59.833Z,78.89
2022-11-02T04:45:59.813Z,78.80
2022-11-02T04:46:59.801Z,79.10
2022-11-02T04:47:59.785Z,78.63
2022-11-02T04:48:59.807Z,78.69
2022-11-02T04:49:59.762Z,78.93
2022-11-02T04:50:59.758Z,78.80
2022-11-02T04:51:59.758Z,78.83
2022-11-02T04:52:59.744Z,78.89
2022-11-02T04:53:59.718Z,78.89
2022-11-02T04:54:59.724Z,79.14
2022-11-02T04:55:59.711Z,79.34
2022-11-02T04:56:59.686Z,79.34
2022-11-02T04:57:59.698Z,79.41
2022-11-02T04:58:59.671Z,79.75
2022-11-02T04:59:59.697Z,79.34
2022-11-02T05:00:59.654Z,79.75
2022-11-02T05:01:59.765Z,79.95
2022-11-02T05:02:59.687Z,80.46
2022-11-02T05:03:59.609Z,80.66
2022-11-02T05:04:59.607Z,80.66
2022-11-02T05:05:59.586Z,80.77
2022-11-02T05:07:01.622Z,80.36
2022-11-02T05:07:59.580Z,80.05
2022-11-02T05:08:59.552Z,80.46
2022-11-02T05:09:59.550Z,80.77
2022-11-02T05:10:59.545Z,80.36
2022-11-02T05:11:59.515Z,80.26
2022-11-02T05:12:59.506Z,80.46
2022-11-02T05:13:59.512Z,80.26
2022-11-02T05:14:59.483Z,80.91
2022-11-02T05:15:59.504Z,80.91
2022-11-02T05:16:59.460Z,80.91
2022-11-02T05:17:59.503Z,80.91
2022-11-02T05:18:59.449Z,80.91
2022-11-02T05:19:59.443Z,81.11
2022-11-02T05:20:59.410Z,80.91
2022-11-02T05:21:59.404Z,80.80
2022-11-02T05:22:59.391Z,80.80
2022-11-02T05:23:59.384Z,80.60
2022-11-02T05:24:59.390Z,80.29
2022-11-02T05:25:59.358Z,80.91
2022-11-02T05:26:59.360Z,80.29
2022-11-02T05:27:59.332Z,80.80
2022-11-02T05:28:59.323Z,80.70
2022-11-02T05:29:59.348Z,80.29
2022-11-02T05:30:59.298Z,80.50
2022-11-02T05:31:59.307Z,80.40
2022-11-02T05:32:59.289Z,80.70
2022-11-02T05:33:59.259Z,80.40
2022-11-02T05:34:59.257Z,80.29
2022-11-02T05:35:59.236Z,80.09
2022-11-02T05:36:59.228Z,80.19
2022-11-02T05:37:59.226Z,80.50
2022-11-02T05:38:59.224Z,80.60
2022-11-02T05:39:59.200Z,80.13
2022-11-02T05:40:59.192Z,79.68
2022-11-02T05:41:59.191Z,80.09
2022-11-02T05:42:59.178Z,79.79
2022-11-02T05:43:59.159Z,79.79
2022-11-02T05:44:59.138Z,80.09
2022-11-02T05:45:59.144Z,79.79
2022-11-02T05:46:59.121Z,79.68
2022-11-02T05:47:59.109Z,79.89
2022-11-02T05:48:59.105Z,79.68
2022-11-02T05:49:59.112Z,79.48
2022-11-02T05:50:59.086Z,79.68
2022-11-02T05:51:59.084Z,79.27
2022-11-02T05:52:59.047Z,79.68
2022-11-02T05:53:59.077Z,79.68
2022-11-02T05:54:59.025Z,79.79
2022-11-02T05:55:59.014Z,79.79
2022-11-02T05:56:59.001Z,79.79
2022-11-02T05:57:58.989Z,79.79
2022-11-02T05:58:58.986Z,79.79
2022-11-02T05:59:58.977Z,79.24
2022-11-02T06:00:58.970Z,79.14
2022-11-02T06:01:59.024Z,79.14
2022-11-02T06:02:58.988Z,78.93
2022-11-02T06:03:58.920Z,79.03
2022-11-02T06:05:00.139Z,79.03
2022-11-02T06:05:58.902Z,78.83
2022-11-02T06:06:58.887Z,78.83
2022-11-02T06:07:58.874Z,78.83
2022-11-02T06:09:01.676Z,78.87
2022-11-02T06:09:59.863Z,78.87
2022-11-02T06:10:58.863Z,78.56
2022-11-02T06:11:58.831Z,78.93
2022-11-02T06:12:58.826Z,79.07
2022-11-02T06:13:58.807Z,79.07
2022-11-02T06:14:58.794Z,78.97
2022-11-02T06:15:58.795Z,78.26
2022-11-02T06:16:58.793Z,79.27
2022-11-02T06:17:58.781Z,78.77
2022-11-02T06:18:58.760Z,78.97
2022-11-02T06:19:58.741Z,78.97
2022-11-02T06:20:58.735Z,78.97
2022-11-02T06:21:58.723Z,79.07
2022-11-02T06:22:58.705Z,78.56
2022-11-02T06:23:58.697Z,78.97
2022-11-02T06:24:58.686Z,78.97
2022-11-02T06:25:58.683Z,79.07
2022-11-02T06:26:58.676Z,78.87
2022-11-02T06:27:58.644Z,78.97
2022-11-02T06:28:58.640Z,79.17
2022-11-02T06:29:58.621Z,79.07
2022-11-02T06:30:58.631Z,79.27
2022-11-02T06:31:58.610Z,79.48
2022-11-02T06:33:04.387Z,79.38
2022-11-02T06:33:59.619Z,79.52
2022-11-02T06:34:58.571Z,79.48
2022-11-02T06:35:58.558Z,79.41
2022-11-02T06:36:58.554Z,79.27
2022-11-02T06:37:58.555Z,79.27
2022-11-02T06:38:58.535Z,79.48
2022-11-02T06:39:58.512Z,79.17
2022-11-02T06:40:58.500Z,79.27
2022-11-02T06:41:58.495Z,79.48
2022-11-02T06:43:16.985Z,78.97
2022-11-02T06:43:59.479Z,79.41
2022-11-02T06:44:58.474Z,79.48
2022-11-02T06:45:58.496Z,79.48
2022-11-02T06:46:58.440Z,79.38
2022-11-02T06:47:58.419Z,79.17
2022-11-02T06:48:58.429Z,78.97
2022-11-02T06:49:58.417Z,78.97
2022-11-02T06:50:58.396Z,78.87
2022-11-02T06:51:58.377Z,79.07
2022-11-02T06:52:58.374Z,78.97
2022-11-02T06:53:58.355Z,78.87
2022-11-02T06:54:58.366Z,78.87
2022-11-02T06:55:58.330Z,78.97
2022-11-02T06:56:58.322Z,78.97
2022-11-02T06:57:58.330Z,78.87
2022-11-02T06:58:58.304Z,78.87
2022-11-02T06:59:58.414Z,78.97
2022-11-02T07:00:58.359Z,78.87
2022-11-02T07:01:58.435Z,79.58
2022-11-02T07:02:58.252Z,78.93
2022-11-02T07:03:58.235Z,78.87
2022-11-02T07:04:58.234Z,78.77
2022-11-02T07:05:58.248Z,78.83
2022-11-02T07:06:58.204Z,78.56
2022-11-02T07:07:58.191Z,78.73
2022-11-02T07:08:58.192Z,78.93
2022-11-02T07:09:58.172Z,78.73
2022-11-02T07:10:58.213Z,78.97
2022-11-02T07:11:58.164Z,78.77
2022-11-02T07:12:58.154Z,78.93
2022-11-02T07:13:58.121Z,78.93
2022-11-02T07:14:58.114Z,78.66
2022-11-02T07:15:58.120Z,78.93
2022-11-02T07:16:58.096Z,79.07
2022-11-02T07:17:58.079Z,78.97
2022-11-02T07:18:58.075Z,79.27
2022-11-02T07:19:58.064Z,78.87
2022-11-02T07:20:58.055Z,78.66
2022-11-02T07:21:58.053Z,78.87
2022-11-02T07:22:58.033Z,78.97
2022-11-02T07:23:58.010Z,79.17
2022-11-02T07:24:58.005Z,79.48
2022-11-02T07:25:58.006Z,79.38
2022-11-02T07:26:57.994Z,79.58
2022-11-02T07:27:57.964Z,79.17
2022-11-02T07:28:59.436Z,79.17
2022-11-02T07:29:57.939Z,79.38
2022-11-02T07:30:57.946Z,79.27
2022-11-02T07:31:57.926Z,79.27
2022-11-02T07:32:57.910Z,79.07
2022-11-02T07:33:57.900Z,78.87
2022-11-02T07:34:57.903Z,78.87
2022-11-02T07:35:57.882Z,78.83
2022-11-02T07:36:57.876Z,78.77
2022-11-02T07:37:57.871Z,78.97
2022-11-02T07:38:57.882Z,79.03
2022-11-02T07:39:57.838Z,78.73
2022-11-02T07:40:57.824Z,78.87
2022-11-02T07:41:57.884Z,78.53
2022-11-02T07:42:57.794Z,78.73
2022-11-02T07:43:57.793Z,78.73
2022-11-02T07:44:57.786Z,79.03
2022-11-02T07:45:57.773Z,78.83
2022-11-02T07:46:57.760Z,78.73
2022-11-02T07:47:57.747Z,78.53
2022-11-02T07:48:57.735Z,78.83
2022-11-02T07:49:57.714Z,78.56
2022-11-02T07:50:57.716Z,78.93
2022-11-02T07:51:57.697Z,79.07
2022-11-02T07:52:57.716Z,78.53
2022-11-02T07:53:57.686Z,78.87
2022-11-02T07:54:57.659Z,78.77
2022-11-02T07:55:57.656Z,78.42
2022-11-02T07:56:57.744Z,78.73
2022-11-02T07:57:57.622Z,78.73
2022-11-02T07:58:57.631Z,78.73
2022-11-02T07:59:57.610Z,78.73
2022-11-02T08:00:59.875Z,78.63
2022-11-02T08:01:57.644Z,78.32
2022-11-02T08:02:57.742Z,78.28
2022-11-02T08:03:57.564Z,77.57
2022-11-02T08:04:57.547Z,77.03
2022-11-02T08:05:57.550Z,75.87
2022-11-02T08:06:57.532Z,75.33
2022-11-02T08:07:57.511Z,74.76
2022-11-02T08:08:57.528Z,75.87
2022-11-02T08:09:57.509Z,75.37
2022-11-02T08:10:57.484Z,75.26
2022-11-02T08:11:57.464Z,75.09
2022-11-02T08:12:57.457Z,75.40
2022-11-02T08:13:57.452Z,75.95
2022-11-02T08:14:57.441Z,76.11
2022-11-02T08:15:57.418Z,76.62
2022-11-02T08:17:04.993Z,75.91
2022-11-02T08:17:57.397Z,76.45
2022-11-02T08:18:57.395Z,76.65
2022-11-02T08:19:57.387Z,76.65
2022-11-02T08:20:57.399Z,77.06
2022-11-02T08:21:57.368Z,76.96
2022-11-02T08:22:57.350Z,77.26
2022-11-02T08:23:58.706Z,76.76
2022-11-02T08:24:57.361Z,76.45
2022-11-02T08:25:57.356Z,75.84
2022-11-02T08:26:57.310Z,75.64
2022-11-02T08:27:57.282Z,76.35
2022-11-02T08:28:57.273Z,76.25
2022-11-02T08:29:57.276Z,76.15
2022-11-02T08:30:57.264Z,76.45
2022-11-02T08:31:57.237Z,76.96
2022-11-02T08:32:57.520Z,76.82
2022-11-02T08:33:57.228Z,76.21
2022-11-02T08:34:57.230Z,75.87
2022-11-02T08:35:57.199Z,75.77
2022-11-02T08:36:57.188Z,75.46
2022-11-02T08:37:57.183Z,75.40
2022-11-02T08:38:57.160Z,75.50
2022-11-02T08:39:57.160Z,75.20
2022-11-02T08:40:57.163Z,75.50
2022-11-02T08:41:57.148Z,75.77
2022-11-02T08:42:57.137Z,75.30
2022-11-02T08:43:57.103Z,75.40
2022-11-02T08:44:57.095Z,75.81
2022-11-02T08:46:58.104Z,76.21
2022-11-02T08:47:57.062Z,76.72
2022-11-02T08:48:57.047Z,76.11
2022-11-02T08:49:57.033Z,75.60
2022-11-02T08:50:57.031Z,75.91
2022-11-02T08:51:57.060Z,75.95
2022-11-02T08:52:57.003Z,76.31
2022-11-02T08:53:56.988Z,76.31
2022-11-02T08:54:56.983Z,76.72
2022-11-02T08:55:56.964Z,75.81
2022-11-02T08:56:56.965Z,75.50
2022-11-02T08:57:56.990Z,75.40
2022-11-02T08:58:56.939Z,75.60
2022-11-02T08:59:56.924Z,75.50
2022-11-02T09:00:56.920Z,75.50
2022-11-02T09:01:57.154Z,75.60
2022-11-02T09:02:56.950Z,76.21
2022-11-02T09:03:56.893Z,75.70
2022-11-02T09:04:56.877Z,75.74
2022-11-02T09:05:56.864Z,76.15
2022-11-02T09:06:56.849Z,76.45
2022-11-02T09:07:56.834Z,76.96
2022-11-02T09:08:58.143Z,76.45
2022-11-02T09:09:56.811Z,76.65
2022-11-02T09:10:56.806Z,77.13
2022-11-02T09:11:56.785Z,76.31
2022-11-02T09:12:56.771Z,75.57
2022-11-02T09:13:57.329Z,74.65
2022-11-02T09:14:56.763Z,74.65
2022-11-02T09:15:56.747Z,75.77
2022-11-02T09:16:56.726Z,74.11
2022-11-02T09:17:56.717Z,73.80
2022-11-02T09:18:56.714Z,74.11
2022-11-02T09:19:56.697Z,73.67
2022-11-02T09:20:56.698Z,74.07
2022-11-02T09:21:56.683Z,73.94
2022-11-02T09:22:56.661Z,73.26
2022-11-02T09:23:56.664Z,73.46
2022-11-02T09:24:56.634Z,73.43
2022-11-02T09:25:56.643Z,73.57
2022-11-02T09:26:56.628Z,73.67
2022-11-02T09:27:56.603Z,73.46
2022-11-02T09:28:56.591Z,73.06
2022-11-02T09:29:56.641Z,73.36
2022-11-02T09:30:56.573Z,73.16
2022-11-02T09:31:56.585Z,73.16
2022-11-02T09:32:56.554Z,73.06
2022-11-02T09:33:56.542Z,73.67
2022-11-02T09:34:56.525Z,73.16
2022-11-02T09:35:56.524Z,72.96
2022-11-02T09:36:56.502Z,72.45
2022-11-02T09:37:56.510Z,73.22
2022-11-02T09:38:56.491Z,72.41
2022-11-02T09:39:56.467Z,72.82
2022-11-02T09:40:56.457Z,72.89
2022-11-02T09:41:56.458Z,73.09
2022-11-02T09:42:56.439Z,72.58
2022-11-02T09:43:56.444Z,71.97
2022-11-02T09:44:56.434Z,72.01
2022-11-02T09:45:56.449Z,72.82
2022-11-02T09:47:40.107Z,72.65
2022-11-02T09:48:26.793Z,72.75
2022-11-02T09:48:57.375Z,73.46
2022-11-02T09:49:56.366Z,73.26
2022-11-02T09:50:59.284Z,73.57
2022-11-02T09:51:57.345Z,73.06
2022-11-02T09:52:56.324Z,73.33
2022-11-02T09:53:56.328Z,73.43
2022-11-02T09:54:56.305Z,72.31
2022-11-02T09:55:56.307Z,72.92
2022-11-02T09:56:56.285Z,72.62
2022-11-02T09:57:56.274Z,73.09
2022-11-02T09:58:56.269Z,72.72
2022-11-02T09:59:56.247Z,71.30
2022-11-02T10:01:01.610Z,72.31
2022-11-02T10:01:56.245Z,71.91
2022-11-02T10:02:56.292Z,72.01
2022-11-02T10:03:56.198Z,72.41
2022-11-02T10:04:56.206Z,72.55
2022-11-02T10:05:56.196Z,72.96
2022-11-02T10:06:56.165Z,72.96
2022-11-02T10:07:56.168Z,72.55
2022-11-02T10:08:56.146Z,72.78
2022-11-02T10:09:56.132Z,72.69
2022-11-02T10:10:56.117Z,73.19
2022-11-02T10:11:56.136Z,72.11
2022-11-02T10:12:56.101Z,72.78
2022-11-02T10:13:56.952Z,72.89
2022-11-02T10:14:56.072Z,72.65
2022-11-02T10:15:56.064Z,72.55
2022-11-02T10:16:56.075Z,72.31
2022-11-02T10:17:56.073Z,72.41
2022-11-02T10:18:56.025Z,71.30
2022-11-02T10:19:56.017Z,72.08
2022-11-02T10:20:56.021Z,71.03
2022-11-02T10:21:56.013Z,70.83
2022-11-02T10:22:55.981Z,70.83
2022-11-02T10:23:55.974Z,70.11
2022-11-02T10:24:55.977Z,70.52
2022-11-02T10:25:55.951Z,70.65
2022-11-02T10:26:55.938Z,69.98
2022-11-02T10:27:55.988Z,70.42
2022-11-02T10:28:55.915Z,71.20
2022-11-02T10:29:55.922Z,70.99
2022-11-02T10:30:55.889Z,70.55
2022-11-02T10:31:55.893Z,70.25
2022-11-02T10:32:55.903Z,70.01
2022-11-02T10:33:58.185Z,69.71
2022-11-02T10:34:59.071Z,68.79
2022-11-02T10:36:16.878Z,69.81
2022-11-02T10:36:56.869Z,69.74
2022-11-02T10:37:55.825Z,69.81
2022-11-02T10:38:55.837Z,69.71
2022-11-02T10:39:55.799Z,69.71
2022-11-02T10:40:55.788Z,69.30
2022-11-02T10:41:55.793Z,69.74
2022-11-02T10:42:55.757Z,69.64
2022-11-02T10:43:55.743Z,70.38
2022-11-02T10:44:55.731Z,71.40
2022-11-02T10:45:55.752Z,70.89
2022-11-02T10:46:55.713Z,70.25
2022-11-02T10:47:55.714Z,70.15
2022-11-02T10:48:55.689Z,69.98
2022-11-02T10:49:55.702Z,70.59
2022-11-02T10:50:55.687Z,70.89
2022-11-02T10:51:55.663Z,71.03
2022-11-02T10:53:04.890Z,71.33
2022-11-02T10:53:56.715Z,72.14
2022-11-02T10:54:55.630Z,71.80
2022-11-02T10:55:55.638Z,72.21
2022-11-02T10:56:55.597Z,71.26
2022-11-02T10:57:55.590Z,70.89
2022-11-02T10:58:55.587Z,70.45
2022-11-02T10:59:57.003Z,70.18
2022-11-02T11:00:55.598Z,70.59
2022-11-02T11:01:55.617Z,70.48
2022-11-02T11:02:55.537Z,70.79
2022-11-02T11:03:55.529Z,69.84
2022-11-02T11:04:55.506Z,68.86
2022-11-02T11:05:55.519Z,69.57
2022-11-02T11:06:55.485Z,69.57
2022-11-02T11:07:55.484Z,69.09
2022-11-02T11:08:55.465Z,69.37
2022-11-02T11:09:55.462Z,68.93
2022-11-02T11:10:55.438Z,68.29
2022-11-02T11:11:55.428Z,67.38
2022-11-02T11:12:55.548Z,68.08
2022-11-02T11:15:56.415Z,66.23
2022-11-02T11:16:55.503Z,65.42
2022-11-02T11:19:56.354Z,65.39
2022-11-02T11:20:56.175Z,65.72
2022-11-02T11:21:55.365Z,65.31
2022-11-02T11:22:56.178Z,65.48
2022-11-02T11:23:55.359Z,65.79
2022-11-02T11:24:55.288Z,64.44
2022-11-02T11:25:55.308Z,64.47
2022-11-02T11:27:00.122Z,65.39
2022-11-02T11:27:56.249Z,64.85
2022-11-02T11:28:55.234Z,65.25
2022-11-02T11:29:55.244Z,64.82
2022-11-02T11:30:59.870Z,64.82
2022-11-02T11:31:56.218Z,65.12
2022-11-02T11:32:55.200Z,64.51
2022-11-02T11:33:55.189Z,64.92
2022-11-02T11:34:55.171Z,65.32
2022-11-02T11:35:55.167Z,65.09
2022-11-02T11:36:55.155Z,63.57
2022-11-02T11:37:55.161Z,62.46
2022-11-02T11:38:55.146Z,62.29
2022-11-02T11:39:55.204Z,63.09
2022-11-02T11:40:55.114Z,62.79
2022-11-02T11:41:55.112Z,62.62
2022-11-02T11:42:58.712Z,63.02
2022-11-02T11:43:56.107Z,63.02
2022-11-02T11:44:55.059Z,62.82
2022-11-02T11:45:55.052Z,62.11
2022-11-02T11:46:55.032Z,62.72
2022-11-02T11:47:55.025Z,63.93
2022-11-02T11:48:55.024Z,63.83
2022-11-02T11:50:09.815Z,63.12
2022-11-02T11:50:56.006Z,62.92
2022-11-02T11:51:54.982Z,63.12
2022-11-02T11:52:54.979Z,63.90
2022-11-02T11:53:54.979Z,62.82
2022-11-02T11:54:54.950Z,63.32
2022-11-02T11:55:54.937Z,62.89
2022-11-02T11:56:54.922Z,62.18
2022-11-02T11:57:54.923Z,62.99
2022-11-02T11:58:54.922Z,62.79
2022-11-02T11:59:54.907Z,62.76
2022-11-02T12:00:54.878Z,61.47
2022-11-02T12:01:55.004Z,62.05
2022-11-02T12:02:54.922Z,62.05
2022-11-02T12:03:54.847Z,62.05
2022-11-02T12:04:54.838Z,61.27
2022-11-02T12:05:54.832Z,61.68
2022-11-02T12:06:54.814Z,61.27
2022-11-02T12:07:56.194Z,61.27
2022-11-02T12:08:54.799Z,61.78
2022-11-02T12:09:54.796Z,62.18
2022-11-02T12:10:54.761Z,62.08
2022-11-02T12:11:54.760Z,62.41
2022-11-02T12:12:54.751Z,62.01
2022-11-02T12:13:54.730Z,62.11
2022-11-02T12:14:54.743Z,62.69
2022-11-02T12:15:54.707Z,62.59
2022-11-02T12:16:54.702Z,62.21
2022-11-02T12:17:54.740Z,62.38
2022-11-02T12:18:54.737Z,62.69
2022-11-02T12:19:54.661Z,63.81
2022-11-02T12:20:54.799Z,66.64
2022-11-02T12:21:54.727Z,63.17
2022-11-02T12:22:54.625Z,64.07
2022-11-02T12:23:54.630Z,62.46
2022-11-02T12:24:54.603Z,62.46
2022-11-02T12:25:54.620Z,62.99
2022-11-02T12:26:54.587Z,62.18
2022-11-02T12:27:54.587Z,62.15
2022-11-02T12:28:54.567Z,62.29
2022-11-02T12:29:54.557Z,62.76
2022-11-02T12:30:54.571Z,62.86
2022-11-02T12:32:00.484Z,63.07
2022-11-02T12:32:55.516Z,63.17
2022-11-02T12:33:54.524Z,62.56
2022-11-02T12:35:23.031Z,63.17
2022-11-02T12:35:55.503Z,61.75
2022-11-02T12:37:26.601Z,61.14
2022-11-02T12:37:55.465Z,61.14
2022-11-02T12:38:54.444Z,61.55
2022-11-02T12:39:54.438Z,61.04
2022-11-02T12:40:54.443Z,61.98
2022-11-02T12:41:54.463Z,61.58
2022-11-02T12:42:54.411Z,62.29
2022-11-02T12:43:54.393Z,61.17
2022-11-02T12:44:54.377Z,61.98
2022-11-02T12:45:54.373Z,61.98
2022-11-02T12:46:54.366Z,62.38
2022-11-02T12:47:54.348Z,62.49
2022-11-02T12:48:54.349Z,62.69
2022-11-02T12:49:54.331Z,61.68
2022-11-02T12:50:54.322Z,61.88
2022-11-02T12:51:54.320Z,62.38
2022-11-02T12:52:54.287Z,61.88
2022-11-02T12:53:54.275Z,62.59
2022-11-02T12:54:54.262Z,62.29
2022-11-02T12:55:54.256Z,62.69
2022-11-02T12:56:54.274Z,62.08
2022-11-02T12:57:54.266Z,61.88
2022-11-02T12:58:54.227Z,61.80
2022-11-02T12:59:54.216Z,61.91
2022-11-02T13:00:54.251Z,62.41